sensor_id;sensor_type;location;lat;lon;timestamp;P1;durP1;ratioP1;P2;durP2;ratioP2
38940;SDS011;43236;47.208;7.518;2023-03-03T00:00:59;80.55;;;30.80;;
38940;SDS011;43236;47.208;7.518;2023-03-03T00:03:48;79.88;;;31.58;;
38940;SDS011;43236;47.208;7.518;2023-03-03T00:06:35;88.72;;;31.38;;
38940;SDS011;43236;47.208;7.518;2023-03-03T00:09:22;75.50;;;29.90;;
38940;SDS011;43236;47.208;7.518;2023-03-03T00:12:16;75.57;;;31.52;;
38940;SDS011;43236;47.208;7.518;2023-03-03T00:15:12;84.57;;;32.20;;
38940;SDS011;43236;47.208;7.518;2023-03-03T00:18:01;80.20;;;30.15;;
38940;SDS011;43236;47.208;7.518;2023-03-03T00:21:07;79.93;;;30.25;;
38940;SDS011;43236;47.208;7.518;2023-03-03T00:27:16;78.15;;;29.75;;
38940;SDS011;43236;47.208;7.518;2023-03-03T00:30:16;79.38;;;31.40;;
38940;SDS011;43236;47.208;7.518;2023-03-03T00:33:06;81.10;;;30.98;;
38940;SDS011;43236;47.208;7.518;2023-03-03T00:36:27;75.55;;;30.88;;
38940;SDS011;43236;47.208;7.518;2023-03-03T00:39:22;79.63;;;31.20;;
38940;SDS011;43236;47.208;7.518;2023-03-03T00:42:15;75.18;;;29.48;;
38940;SDS011;43236;47.208;7.518;2023-03-03T00:45:07;78.00;;;30.10;;
38940;SDS011;43236;47.208;7.518;2023-03-03T00:48:20;72.75;;;29.33;;
38940;SDS011;43236;47.208;7.518;2023-03-03T00:51:12;74.22;;;30.33;;
38940;SDS011;43236;47.208;7.518;2023-03-03T00:54:13;68.28;;;27.70;;
38940;SDS011;43236;47.208;7.518;2023-03-03T00:57:00;80.53;;;29.88;;
38940;SDS011;43236;47.208;7.518;2023-03-03T00:59:47;70.75;;;27.67;;
38940;SDS011;43236;47.208;7.518;2023-03-03T01:02:35;73.28;;;30.05;;
38940;SDS011;43236;47.208;7.518;2023-03-03T01:05:22;74.93;;;30.55;;
38940;SDS011;43236;47.208;7.518;2023-03-03T01:08:09;79.57;;;29.05;;
38940;SDS011;43236;47.208;7.518;2023-03-03T01:10:59;66.75;;;28.67;;
38940;SDS011;43236;47.208;7.518;2023-03-03T01:13:51;71.55;;;29.30;;
38940;SDS011;43236;47.208;7.518;2023-03-03T01:16:39;71.30;;;29.25;;
38940;SDS011;43236;47.208;7.518;2023-03-03T01:19:26;71.63;;;28.45;;
38940;SDS011;43236;47.208;7.518;2023-03-03T01:22:13;72.25;;;29.33;;
38940;SDS011;43236;47.208;7.518;2023-03-03T01:25:00;71.93;;;28.95;;
38940;SDS011;43236;47.208;7.518;2023-03-03T01:27:50;75.90;;;30.10;;
38940;SDS011;43236;47.208;7.518;2023-03-03T01:30:37;80.78;;;30.15;;
38940;SDS011;43236;47.208;7.518;2023-03-03T01:33:24;77.43;;;30.23;;
38940;SDS011;43236;47.208;7.518;2023-03-03T01:36:13;78.85;;;30.30;;
38940;SDS011;43236;47.208;7.518;2023-03-03T01:39:01;66.43;;;28.75;;
38940;SDS011;43236;47.208;7.518;2023-03-03T01:41:49;67.55;;;27.25;;
38940;SDS011;43236;47.208;7.518;2023-03-03T01:44:38;85.50;;;29.95;;
38940;SDS011;43236;47.208;7.518;2023-03-03T01:47:25;68.35;;;28.98;;
38940;SDS011;43236;47.208;7.518;2023-03-03T01:50:19;78.72;;;31.25;;
38940;SDS011;43236;47.208;7.518;2023-03-03T01:53:20;71.30;;;28.67;;
38940;SDS011;43236;47.208;7.518;2023-03-03T01:56:13;71.53;;;28.83;;
38940;SDS011;43236;47.208;7.518;2023-03-03T01:59:00;76.90;;;28.85;;
38940;SDS011;43236;47.208;7.518;2023-03-03T02:01:52;70.88;;;28.83;;
38940;SDS011;43236;47.208;7.518;2023-03-03T02:04:39;73.47;;;29.10;;
38940;SDS011;43236;47.208;7.518;2023-03-03T02:07:27;69.05;;;28.30;;
38940;SDS011;43236;47.208;7.518;2023-03-03T02:10:16;74.10;;;29.25;;
38940;SDS011;43236;47.208;7.518;2023-03-03T02:13:04;76.45;;;28.25;;
38940;SDS011;43236;47.208;7.518;2023-03-03T02:15:52;74.43;;;29.35;;
38940;SDS011;43236;47.208;7.518;2023-03-03T02:18:42;74.60;;;28.35;;
38940;SDS011;43236;47.208;7.518;2023-03-03T02:21:29;70.30;;;29.48;;
38940;SDS011;43236;47.208;7.518;2023-03-03T02:24:17;65.65;;;29.00;;
38940;SDS011;43236;47.208;7.518;2023-03-03T02:27:12;75.13;;;30.13;;
38940;SDS011;43236;47.208;7.518;2023-03-03T02:30:07;68.30;;;28.27;;
38940;SDS011;43236;47.208;7.518;2023-03-03T02:32:56;71.63;;;28.67;;
38940;SDS011;43236;47.208;7.518;2023-03-03T02:35:43;71.07;;;27.85;;
38940;SDS011;43236;47.208;7.518;2023-03-03T02:38:31;71.55;;;29.75;;
38940;SDS011;43236;47.208;7.518;2023-03-03T02:41:25;72.78;;;28.52;;
38940;SDS011;43236;47.208;7.518;2023-03-03T02:44:18;71.43;;;27.77;;
38940;SDS011;43236;47.208;7.518;2023-03-03T02:47:07;64.85;;;27.77;;
38940;SDS011;43236;47.208;7.518;2023-03-03T02:49:54;65.90;;;28.00;;
38940;SDS011;43236;47.208;7.518;2023-03-03T02:52:41;66.05;;;27.60;;
38940;SDS011;43236;47.208;7.518;2023-03-03T02:55:28;69.75;;;28.20;;
38940;SDS011;43236;47.208;7.518;2023-03-03T02:58:15;73.43;;;28.70;;
38940;SDS011;43236;47.208;7.518;2023-03-03T03:01:03;71.68;;;28.92;;
38940;SDS011;43236;47.208;7.518;2023-03-03T03:03:50;73.05;;;30.00;;
38940;SDS011;43236;47.208;7.518;2023-03-03T03:06:38;72.10;;;29.65;;
38940;SDS011;43236;47.208;7.518;2023-03-03T03:09:25;70.80;;;28.58;;
38940;SDS011;43236;47.208;7.518;2023-03-03T03:12:12;74.00;;;29.48;;
38940;SDS011;43236;47.208;7.518;2023-03-03T03:15:00;77.68;;;30.77;;
38940;SDS011;43236;47.208;7.518;2023-03-03T03:17:48;78.90;;;29.67;;
38940;SDS011;43236;47.208;7.518;2023-03-03T03:20:36;71.90;;;29.35;;
38940;SDS011;43236;47.208;7.518;2023-03-03T03:23:24;69.93;;;28.70;;
38940;SDS011;43236;47.208;7.518;2023-03-03T03:26:11;77.93;;;31.02;;
38940;SDS011;43236;47.208;7.518;2023-03-03T03:28:59;71.55;;;30.85;;
38940;SDS011;43236;47.208;7.518;2023-03-03T03:31:46;82.00;;;30.30;;
38940;SDS011;43236;47.208;7.518;2023-03-03T03:34:34;73.82;;;30.70;;
38940;SDS011;43236;47.208;7.518;2023-03-03T03:37:21;67.60;;;30.42;;
38940;SDS011;43236;47.208;7.518;2023-03-03T03:40:09;69.70;;;31.30;;
38940;SDS011;43236;47.208;7.518;2023-03-03T03:42:58;70.75;;;29.15;;
38940;SDS011;43236;47.208;7.518;2023-03-03T03:45:45;72.22;;;29.83;;
38940;SDS011;43236;47.208;7.518;2023-03-03T03:48:32;71.45;;;29.42;;
38940;SDS011;43236;47.208;7.518;2023-03-03T03:51:21;84.95;;;32.35;;
38940;SDS011;43236;47.208;7.518;2023-03-03T03:54:08;70.65;;;29.30;;
38940;SDS011;43236;47.208;7.518;2023-03-03T03:56:56;77.38;;;29.98;;
38940;SDS011;43236;47.208;7.518;2023-03-03T03:59:43;77.97;;;30.92;;
38940;SDS011;43236;47.208;7.518;2023-03-03T04:02:30;74.10;;;31.50;;
38940;SDS011;43236;47.208;7.518;2023-03-03T04:05:17;72.32;;;29.70;;
38940;SDS011;43236;47.208;7.518;2023-03-03T04:08:06;74.40;;;30.30;;
38940;SDS011;43236;47.208;7.518;2023-03-03T04:10:53;70.25;;;29.13;;
38940;SDS011;43236;47.208;7.518;2023-03-03T04:13:40;74.55;;;29.92;;
38940;SDS011;43236;47.208;7.518;2023-03-03T04:16:27;71.18;;;29.15;;
38940;SDS011;43236;47.208;7.518;2023-03-03T04:19:14;66.25;;;28.23;;
38940;SDS011;43236;47.208;7.518;2023-03-03T04:22:01;68.05;;;29.25;;
38940;SDS011;43236;47.208;7.518;2023-03-03T04:24:49;65.50;;;28.80;;
38940;SDS011;43236;47.208;7.518;2023-03-03T04:27:36;72.75;;;29.33;;
38940;SDS011;43236;47.208;7.518;2023-03-03T04:30:23;72.47;;;29.23;;
38940;SDS011;43236;47.208;7.518;2023-03-03T04:33:11;70.88;;;28.73;;
38940;SDS011;43236;47.208;7.518;2023-03-03T04:35:58;73.78;;;30.15;;
38940;SDS011;43236;47.208;7.518;2023-03-03T04:38:45;76.28;;;29.40;;
38940;SDS011;43236;47.208;7.518;2023-03-03T04:41:33;74.22;;;30.33;;
38940;SDS011;43236;47.208;7.518;2023-03-03T04:44:21;68.18;;;30.33;;
38940;SDS011;43236;47.208;7.518;2023-03-03T04:47:08;69.28;;;29.90;;
38940;SDS011;43236;47.208;7.518;2023-03-03T04:49:55;68.30;;;28.15;;
38940;SDS011;43236;47.208;7.518;2023-03-03T04:52:42;72.05;;;29.92;;
38940;SDS011;43236;47.208;7.518;2023-03-03T04:55:29;80.95;;;31.85;;
38940;SDS011;43236;47.208;7.518;2023-03-03T04:58:17;76.63;;;31.13;;
38940;SDS011;43236;47.208;7.518;2023-03-03T05:01:05;84.47;;;31.30;;
38940;SDS011;43236;47.208;7.518;2023-03-03T05:03:52;70.45;;;30.98;;
38940;SDS011;43236;47.208;7.518;2023-03-03T05:06:39;73.32;;;30.45;;
38940;SDS011;43236;47.208;7.518;2023-03-03T05:09:26;71.88;;;30.58;;
38940;SDS011;43236;47.208;7.518;2023-03-03T05:12:13;75.63;;;31.25;;
38940;SDS011;43236;47.208;7.518;2023-03-03T05:15:02;76.55;;;31.98;;
38940;SDS011;43236;47.208;7.518;2023-03-03T05:17:50;72.80;;;32.47;;
38940;SDS011;43236;47.208;7.518;2023-03-03T05:20:38;80.88;;;31.52;;
38940;SDS011;43236;47.208;7.518;2023-03-03T05:23:26;75.18;;;30.95;;
38940;SDS011;43236;47.208;7.518;2023-03-03T05:26:13;78.88;;;31.05;;
38940;SDS011;43236;47.208;7.518;2023-03-03T05:29:01;79.10;;;31.65;;
38940;SDS011;43236;47.208;7.518;2023-03-03T05:31:49;75.55;;;29.88;;
38940;SDS011;43236;47.208;7.518;2023-03-03T05:34:36;73.00;;;31.52;;
38940;SDS011;43236;47.208;7.518;2023-03-03T05:37:23;68.15;;;29.83;;
38940;SDS011;43236;47.208;7.518;2023-03-03T05:40:11;75.85;;;32.28;;
38940;SDS011;43236;47.208;7.518;2023-03-03T05:42:58;73.35;;;30.80;;
38940;SDS011;43236;47.208;7.518;2023-03-03T05:45:46;71.82;;;30.13;;
38940;SDS011;43236;47.208;7.518;2023-03-03T05:48:34;77.50;;;30.50;;
38940;SDS011;43236;47.208;7.518;2023-03-03T05:51:21;71.97;;;30.10;;
38940;SDS011;43236;47.208;7.518;2023-03-03T05:54:08;81.03;;;31.40;;
38940;SDS011;43236;47.208;7.518;2023-03-03T05:56:55;81.05;;;31.65;;
38940;SDS011;43236;47.208;7.518;2023-03-03T05:59:42;79.90;;;31.58;;
38940;SDS011;43236;47.208;7.518;2023-03-03T06:02:29;74.70;;;30.80;;
38940;SDS011;43236;47.208;7.518;2023-03-03T06:05:18;84.93;;;31.65;;
38940;SDS011;43236;47.208;7.518;2023-03-03T06:08:05;75.18;;;31.25;;
38940;SDS011;43236;47.208;7.518;2023-03-03T06:10:52;78.97;;;32.80;;
38940;SDS011;43236;47.208;7.518;2023-03-03T06:13:39;76.65;;;30.88;;
38940;SDS011;43236;47.208;7.518;2023-03-03T06:16:27;75.03;;;30.38;;
38940;SDS011;43236;47.208;7.518;2023-03-03T06:19:14;73.80;;;30.90;;
38940;SDS011;43236;47.208;7.518;2023-03-03T06:22:02;77.97;;;32.53;;
38940;SDS011;43236;47.208;7.518;2023-03-03T06:24:49;85.65;;;33.20;;
38940;SDS011;43236;47.208;7.518;2023-03-03T06:27:37;78.15;;;31.73;;
38940;SDS011;43236;47.208;7.518;2023-03-03T06:30:24;85.47;;;34.22;;
38940;SDS011;43236;47.208;7.518;2023-03-03T06:33:12;80.60;;;31.55;;
38940;SDS011;43236;47.208;7.518;2023-03-03T06:35:59;72.68;;;31.45;;
38940;SDS011;43236;47.208;7.518;2023-03-03T06:38:48;69.43;;;30.08;;
38940;SDS011;43236;47.208;7.518;2023-03-03T06:41:35;80.40;;;31.27;;
38940;SDS011;43236;47.208;7.518;2023-03-03T06:44:22;76.53;;;30.80;;
38940;SDS011;43236;47.208;7.518;2023-03-03T06:47:09;76.00;;;31.52;;
38940;SDS011;43236;47.208;7.518;2023-03-03T06:49:56;75.05;;;30.92;;
38940;SDS011;43236;47.208;7.518;2023-03-03T06:52:43;83.65;;;31.75;;
38940;SDS011;43236;47.208;7.518;2023-03-03T06:55:32;75.88;;;31.73;;
38940;SDS011;43236;47.208;7.518;2023-03-03T06:58:20;75.55;;;31.67;;
38940;SDS011;43236;47.208;7.518;2023-03-03T07:01:10;72.03;;;32.30;;
38940;SDS011;43236;47.208;7.518;2023-03-03T07:04:03;72.28;;;31.27;;
38940;SDS011;43236;47.208;7.518;2023-03-03T07:06:59;86.28;;;33.50;;
38940;SDS011;43236;47.208;7.518;2023-03-03T07:09:53;80.25;;;32.13;;
38940;SDS011;43236;47.208;7.518;2023-03-03T07:12:43;86.78;;;32.83;;
38940;SDS011;43236;47.208;7.518;2023-03-03T07:15:32;80.55;;;33.03;;
38940;SDS011;43236;47.208;7.518;2023-03-03T07:18:22;81.80;;;33.35;;
38940;SDS011;43236;47.208;7.518;2023-03-03T07:21:18;82.68;;;31.25;;
38940;SDS011;43236;47.208;7.518;2023-03-03T07:24:24;79.75;;;32.25;;
38940;SDS011;43236;47.208;7.518;2023-03-03T07:27:15;80.63;;;33.65;;
38940;SDS011;43236;47.208;7.518;2023-03-03T07:30:16;77.75;;;32.10;;
38940;SDS011;43236;47.208;7.518;2023-03-03T07:33:13;78.43;;;30.90;;
38940;SDS011;43236;47.208;7.518;2023-03-03T07:36:17;82.05;;;33.08;;
38940;SDS011;43236;47.208;7.518;2023-03-03T07:42:20;85.35;;;33.08;;
38940;SDS011;43236;47.208;7.518;2023-03-03T07:45:20;74.85;;;31.25;;
38940;SDS011;43236;47.208;7.518;2023-03-03T07:48:15;88.28;;;34.22;;
38940;SDS011;43236;47.208;7.518;2023-03-03T07:51:11;75.03;;;32.58;;
38940;SDS011;43236;47.208;7.518;2023-03-03T07:57:18;79.43;;;32.78;;
38940;SDS011;43236;47.208;7.518;2023-03-03T08:03:38;72.53;;;30.73;;
38940;SDS011;43236;47.208;7.518;2023-03-03T08:06:36;75.95;;;32.22;;
38940;SDS011;43236;47.208;7.518;2023-03-03T08:15:31;75.45;;;32.67;;
38940;SDS011;43236;47.208;7.518;2023-03-03T08:18:23;77.18;;;33.42;;
38940;SDS011;43236;47.208;7.518;2023-03-03T08:21:15;86.55;;;33.88;;
38940;SDS011;43236;47.208;7.518;2023-03-03T08:24:04;79.05;;;32.30;;
38940;SDS011;43236;47.208;7.518;2023-03-03T08:26:51;73.18;;;32.90;;
38940;SDS011;43236;47.208;7.518;2023-03-03T08:29:38;78.13;;;33.42;;
38940;SDS011;43236;47.208;7.518;2023-03-03T08:32:25;82.55;;;34.03;;
38940;SDS011;43236;47.208;7.518;2023-03-03T08:35:12;80.68;;;32.33;;
38940;SDS011;43236;47.208;7.518;2023-03-03T08:38:01;78.90;;;33.75;;
38940;SDS011;43236;47.208;7.518;2023-03-03T08:40:49;79.00;;;32.72;;
38940;SDS011;43236;47.208;7.518;2023-03-03T08:43:37;77.90;;;32.78;;
38940;SDS011;43236;47.208;7.518;2023-03-03T08:46:24;80.20;;;34.47;;
38940;SDS011;43236;47.208;7.518;2023-03-03T08:49:12;77.82;;;32.70;;
38940;SDS011;43236;47.208;7.518;2023-03-03T08:51:59;87.65;;;33.85;;
38940;SDS011;43236;47.208;7.518;2023-03-03T08:54:48;76.00;;;32.83;;
38940;SDS011;43236;47.208;7.518;2023-03-03T08:57:35;78.47;;;34.05;;
38940;SDS011;43236;47.208;7.518;2023-03-03T09:00:23;79.35;;;33.38;;
38940;SDS011;43236;47.208;7.518;2023-03-03T09:03:11;88.15;;;34.60;;
38940;SDS011;43236;47.208;7.518;2023-03-03T09:05:58;81.22;;;32.78;;
38940;SDS011;43236;47.208;7.518;2023-03-03T09:08:46;84.43;;;34.60;;
38940;SDS011;43236;47.208;7.518;2023-03-03T09:11:35;79.28;;;34.05;;
38940;SDS011;43236;47.208;7.518;2023-03-03T09:14:22;81.50;;;35.13;;
38940;SDS011;43236;47.208;7.518;2023-03-03T09:17:18;83.90;;;33.90;;
38940;SDS011;43236;47.208;7.518;2023-03-03T09:20:29;80.78;;;32.97;;
38940;SDS011;43236;47.208;7.518;2023-03-03T09:23:29;80.22;;;33.58;;
38940;SDS011;43236;47.208;7.518;2023-03-03T09:26:21;82.03;;;35.70;;
38940;SDS011;43236;47.208;7.518;2023-03-03T09:29:22;80.45;;;33.15;;
38940;SDS011;43236;47.208;7.518;2023-03-03T09:32:17;81.63;;;33.67;;
38940;SDS011;43236;47.208;7.518;2023-03-03T09:35:25;81.35;;;35.03;;
38940;SDS011;43236;47.208;7.518;2023-03-03T09:38:25;89.47;;;34.85;;
38940;SDS011;43236;47.208;7.518;2023-03-03T09:51:24;79.97;;;33.73;;
38940;SDS011;43236;47.208;7.518;2023-03-03T09:54:37;72.30;;;31.83;;
38940;SDS011;43236;47.208;7.518;2023-03-03T09:57:48;79.35;;;31.05;;
38940;SDS011;43236;47.208;7.518;2023-03-03T10:00:49;74.35;;;33.20;;
38940;SDS011;43236;47.208;7.518;2023-03-03T10:03:51;71.35;;;31.17;;
38940;SDS011;43236;47.208;7.518;2023-03-03T10:07:08;70.38;;;29.65;;
38940;SDS011;43236;47.208;7.518;2023-03-03T10:10:11;71.05;;;30.38;;
38940;SDS011;43236;47.208;7.518;2023-03-03T10:13:13;70.82;;;30.63;;
38940;SDS011;43236;47.208;7.518;2023-03-03T10:16:20;74.15;;;31.75;;
38940;SDS011;43236;47.208;7.518;2023-03-03T10:19:29;72.78;;;30.13;;
38940;SDS011;43236;47.208;7.518;2023-03-03T10:22:25;76.05;;;31.60;;
38940;SDS011;43236;47.208;7.518;2023-03-03T10:25:21;87.63;;;32.00;;
38940;SDS011;43236;47.208;7.518;2023-03-03T10:28:20;66.32;;;30.63;;
38940;SDS011;43236;47.208;7.518;2023-03-03T10:31:16;69.75;;;28.75;;
38940;SDS011;43236;47.208;7.518;2023-03-03T10:34:27;74.28;;;31.05;;
38940;SDS011;43236;47.208;7.518;2023-03-03T10:37:27;80.03;;;30.90;;
38940;SDS011;43236;47.208;7.518;2023-03-03T10:40:24;66.82;;;30.02;;
38940;SDS011;43236;47.208;7.518;2023-03-03T10:46:29;72.40;;;29.90;;
38940;SDS011;43236;47.208;7.518;2023-03-03T10:49:35;78.28;;;28.73;;
38940;SDS011;43236;47.208;7.518;2023-03-03T10:52:37;77.47;;;30.75;;
38940;SDS011;43236;47.208;7.518;2023-03-03T10:55:35;75.45;;;31.33;;
38940;SDS011;43236;47.208;7.518;2023-03-03T11:01:51;74.70;;;31.92;;
38940;SDS011;43236;47.208;7.518;2023-03-03T11:04:47;80.78;;;32.17;;
38940;SDS011;43236;47.208;7.518;2023-03-03T11:07:55;78.30;;;31.40;;
38940;SDS011;43236;47.208;7.518;2023-03-03T11:10:53;76.30;;;32.47;;
38940;SDS011;43236;47.208;7.518;2023-03-03T11:13:52;80.72;;;32.90;;
38940;SDS011;43236;47.208;7.518;2023-03-03T11:16:49;76.95;;;31.00;;
38940;SDS011;43236;47.208;7.518;2023-03-03T11:19:47;72.38;;;31.10;;
38940;SDS011;43236;47.208;7.518;2023-03-03T11:22:43;75.72;;;30.50;;
38940;SDS011;43236;47.208;7.518;2023-03-03T11:25:38;79.10;;;32.42;;
38940;SDS011;43236;47.208;7.518;2023-03-03T11:28:32;70.50;;;31.85;;
38940;SDS011;43236;47.208;7.518;2023-03-03T11:31:36;77.78;;;31.52;;
38940;SDS011;43236;47.208;7.518;2023-03-03T11:34:49;74.13;;;31.27;;
38940;SDS011;43236;47.208;7.518;2023-03-03T11:38:02;77.20;;;29.70;;
38940;SDS011;43236;47.208;7.518;2023-03-03T11:40:58;77.78;;;31.95;;
38940;SDS011;43236;47.208;7.518;2023-03-03T11:43:50;73.15;;;29.95;;
38940;SDS011;43236;47.208;7.518;2023-03-03T11:46:41;73.72;;;31.52;;
38940;SDS011;43236;47.208;7.518;2023-03-03T11:49:34;72.05;;;31.55;;
38940;SDS011;43236;47.208;7.518;2023-03-03T11:52:27;74.88;;;30.63;;
38940;SDS011;43236;47.208;7.518;2023-03-03T11:55:22;72.28;;;30.42;;
38940;SDS011;43236;47.208;7.518;2023-03-03T11:58:16;78.63;;;31.30;;
38940;SDS011;43236;47.208;7.518;2023-03-03T12:01:08;82.60;;;32.20;;
38940;SDS011;43236;47.208;7.518;2023-03-03T12:04:05;81.93;;;30.50;;
38940;SDS011;43236;47.208;7.518;2023-03-03T12:07:02;76.63;;;29.98;;
38940;SDS011;43236;47.208;7.518;2023-03-03T12:10:04;74.47;;;31.55;;
38940;SDS011;43236;47.208;7.518;2023-03-03T12:13:01;80.80;;;33.15;;
38940;SDS011;43236;47.208;7.518;2023-03-03T12:15:52;75.05;;;30.67;;
38940;SDS011;43236;47.208;7.518;2023-03-03T12:18:58;84.03;;;32.08;;
38940;SDS011;43236;47.208;7.518;2023-03-03T12:21:59;76.32;;;31.55;;
38940;SDS011;43236;47.208;7.518;2023-03-03T12:28:11;81.65;;;32.72;;
38940;SDS011;43236;47.208;7.518;2023-03-03T12:31:08;76.07;;;31.38;;
38940;SDS011;43236;47.208;7.518;2023-03-03T12:34:09;80.18;;;32.10;;
38940;SDS011;43236;47.208;7.518;2023-03-03T12:37:03;77.82;;;31.90;;
38940;SDS011;43236;47.208;7.518;2023-03-03T12:40:06;70.32;;;30.58;;
38940;SDS011;43236;47.208;7.518;2023-03-03T12:43:09;80.22;;;32.40;;
38940;SDS011;43236;47.208;7.518;2023-03-03T12:46:10;75.35;;;31.23;;
38940;SDS011;43236;47.208;7.518;2023-03-03T12:49:05;71.82;;;30.58;;
38940;SDS011;43236;47.208;7.518;2023-03-03T12:51:57;74.93;;;30.75;;
38940;SDS011;43236;47.208;7.518;2023-03-03T12:54:58;77.50;;;31.60;;
38940;SDS011;43236;47.208;7.518;2023-03-03T12:57:54;80.75;;;31.83;;
38940;SDS011;43236;47.208;7.518;2023-03-03T13:00:51;72.97;;;30.42;;
38940;SDS011;43236;47.208;7.518;2023-03-03T13:03:44;71.75;;;30.63;;
38940;SDS011;43236;47.208;7.518;2023-03-03T13:06:42;70.68;;;30.33;;
38940;SDS011;43236;47.208;7.518;2023-03-03T13:09:41;72.85;;;31.67;;
38940;SDS011;43236;47.208;7.518;2023-03-03T13:12:41;72.55;;;29.98;;
38940;SDS011;43236;47.208;7.518;2023-03-03T13:15:31;74.72;;;30.33;;
38940;SDS011;43236;47.208;7.518;2023-03-03T13:18:27;71.60;;;31.70;;
38940;SDS011;43236;47.208;7.518;2023-03-03T13:21:20;83.07;;;31.50;;
38940;SDS011;43236;47.208;7.518;2023-03-03T13:24:15;73.57;;;30.92;;
38940;SDS011;43236;47.208;7.518;2023-03-03T13:27:07;69.72;;;30.15;;
38940;SDS011;43236;47.208;7.518;2023-03-03T13:29:59;73.93;;;30.55;;
38940;SDS011;43236;47.208;7.518;2023-03-03T13:32:49;77.93;;;31.00;;
38940;SDS011;43236;47.208;7.518;2023-03-03T13:35:44;69.20;;;31.23;;
38940;SDS011;43236;47.208;7.518;2023-03-03T13:38:34;74.85;;;30.92;;
38940;SDS011;43236;47.208;7.518;2023-03-03T13:41:26;70.15;;;30.40;;
38940;SDS011;43236;47.208;7.518;2023-03-03T13:44:19;71.75;;;31.92;;
38940;SDS011;43236;47.208;7.518;2023-03-03T13:47:12;78.75;;;31.50;;
38940;SDS011;43236;47.208;7.518;2023-03-03T13:50:10;71.10;;;30.25;;
38940;SDS011;43236;47.208;7.518;2023-03-03T13:53:11;73.55;;;30.27;;
38940;SDS011;43236;47.208;7.518;2023-03-03T13:56:18;73.97;;;30.45;;
38940;SDS011;43236;47.208;7.518;2023-03-03T13:59:22;74.03;;;31.35;;
38940;SDS011;43236;47.208;7.518;2023-03-03T14:02:22;72.95;;;31.35;;
38940;SDS011;43236;47.208;7.518;2023-03-03T14:05:25;74.25;;;30.85;;
38940;SDS011;43236;47.208;7.518;2023-03-03T14:08:21;73.72;;;29.77;;
38940;SDS011;43236;47.208;7.518;2023-03-03T14:11:18;72.75;;;30.70;;
38940;SDS011;43236;47.208;7.518;2023-03-03T14:14:12;69.95;;;29.75;;
38940;SDS011;43236;47.208;7.518;2023-03-03T14:17:22;73.32;;;29.65;;
38940;SDS011;43236;47.208;7.518;2023-03-03T14:20:17;75.88;;;31.42;;
38940;SDS011;43236;47.208;7.518;2023-03-03T14:23:11;72.63;;;30.50;;
38940;SDS011;43236;47.208;7.518;2023-03-03T14:26:06;78.65;;;30.65;;
38940;SDS011;43236;47.208;7.518;2023-03-03T14:29:03;70.78;;;31.05;;
38940;SDS011;43236;47.208;7.518;2023-03-03T14:32:19;78.00;;;32.60;;
38940;SDS011;43236;47.208;7.518;2023-03-03T14:35:13;67.03;;;29.63;;
38940;SDS011;43236;47.208;7.518;2023-03-03T14:38:05;75.97;;;33.42;;
38940;SDS011;43236;47.208;7.518;2023-03-03T14:41:02;75.00;;;31.52;;
38940;SDS011;43236;47.208;7.518;2023-03-03T14:43:58;75.80;;;32.28;;
38940;SDS011;43236;47.208;7.518;2023-03-03T14:46:46;78.57;;;32.38;;
38940;SDS011;43236;47.208;7.518;2023-03-03T14:49:48;70.82;;;31.00;;
38940;SDS011;43236;47.208;7.518;2023-03-03T14:52:36;69.53;;;30.20;;
38940;SDS011;43236;47.208;7.518;2023-03-03T14:55:29;74.65;;;30.85;;
38940;SDS011;43236;47.208;7.518;2023-03-03T14:58:26;75.03;;;31.45;;
38940;SDS011;43236;47.208;7.518;2023-03-03T15:01:19;72.85;;;31.60;;
38940;SDS011;43236;47.208;7.518;2023-03-03T15:04:09;68.78;;;30.48;;
38940;SDS011;43236;47.208;7.518;2023-03-03T15:07:14;68.63;;;29.55;;
38940;SDS011;43236;47.208;7.518;2023-03-03T15:10:09;66.35;;;30.40;;
38940;SDS011;43236;47.208;7.518;2023-03-03T15:12:58;72.30;;;31.73;;
38940;SDS011;43236;47.208;7.518;2023-03-03T15:16:04;73.70;;;30.50;;
38940;SDS011;43236;47.208;7.518;2023-03-03T15:19:06;67.63;;;31.17;;
38940;SDS011;43236;47.208;7.518;2023-03-03T15:22:03;76.30;;;31.45;;
38940;SDS011;43236;47.208;7.518;2023-03-03T15:24:59;68.88;;;30.63;;
38940;SDS011;43236;47.208;7.518;2023-03-03T15:28:00;77.43;;;33.42;;
38940;SDS011;43236;47.208;7.518;2023-03-03T15:31:15;71.93;;;30.00;;
38940;SDS011;43236;47.208;7.518;2023-03-03T15:34:20;70.05;;;30.52;;
38940;SDS011;43236;47.208;7.518;2023-03-03T15:37:19;77.95;;;31.50;;
38940;SDS011;43236;47.208;7.518;2023-03-03T15:40:16;69.55;;;31.67;;
38940;SDS011;43236;47.208;7.518;2023-03-03T15:43:12;73.13;;;31.88;;
38940;SDS011;43236;47.208;7.518;2023-03-03T15:46:11;68.63;;;30.52;;
38940;SDS011;43236;47.208;7.518;2023-03-03T15:49:11;73.00;;;31.25;;
38940;SDS011;43236;47.208;7.518;2023-03-03T15:52:14;73.78;;;31.45;;
38940;SDS011;43236;47.208;7.518;2023-03-03T15:55:15;69.25;;;31.33;;
38940;SDS011;43236;47.208;7.518;2023-03-03T15:58:18;82.70;;;33.33;;
38940;SDS011;43236;47.208;7.518;2023-03-03T16:01:23;75.57;;;33.17;;
38940;SDS011;43236;47.208;7.518;2023-03-03T16:04:13;76.28;;;32.40;;
38940;SDS011;43236;47.208;7.518;2023-03-03T16:07:04;75.65;;;32.33;;
38940;SDS011;43236;47.208;7.518;2023-03-03T16:10:04;78.32;;;32.38;;
38940;SDS011;43236;47.208;7.518;2023-03-03T16:13:13;77.90;;;32.30;;
38940;SDS011;43236;47.208;7.518;2023-03-03T16:16:11;70.93;;;33.13;;
38940;SDS011;43236;47.208;7.518;2023-03-03T16:19:17;81.78;;;32.70;;
38940;SDS011;43236;47.208;7.518;2023-03-03T16:22:20;71.70;;;31.58;;
38940;SDS011;43236;47.208;7.518;2023-03-03T16:25:22;73.93;;;32.75;;
38940;SDS011;43236;47.208;7.518;2023-03-03T16:28:21;75.05;;;33.28;;
38940;SDS011;43236;47.208;7.518;2023-03-03T16:31:16;75.90;;;32.03;;
38940;SDS011;43236;47.208;7.518;2023-03-03T16:34:10;80.78;;;33.08;;
38940;SDS011;43236;47.208;7.518;2023-03-03T16:37:03;75.65;;;33.05;;
38940;SDS011;43236;47.208;7.518;2023-03-03T16:40:02;74.15;;;33.05;;
38940;SDS011;43236;47.208;7.518;2023-03-03T16:43:04;80.35;;;32.78;;
38940;SDS011;43236;47.208;7.518;2023-03-03T16:45:58;79.57;;;33.00;;
38940;SDS011;43236;47.208;7.518;2023-03-03T16:48:53;73.80;;;31.77;;
38940;SDS011;43236;47.208;7.518;2023-03-03T16:51:52;80.72;;;32.35;;
38940;SDS011;43236;47.208;7.518;2023-03-03T16:54:46;79.53;;;34.20;;
38940;SDS011;43236;47.208;7.518;2023-03-03T16:57:42;73.20;;;32.65;;
38940;SDS011;43236;47.208;7.518;2023-03-03T17:00:42;76.57;;;31.73;;
38940;SDS011;43236;47.208;7.518;2023-03-03T17:03:39;84.00;;;33.17;;
38940;SDS011;43236;47.208;7.518;2023-03-03T17:06:39;76.60;;;33.00;;
38940;SDS011;43236;47.208;7.518;2023-03-03T17:09:33;89.38;;;35.72;;
38940;SDS011;43236;47.208;7.518;2023-03-03T17:12:39;80.90;;;33.15;;
38940;SDS011;43236;47.208;7.518;2023-03-03T17:15:37;80.55;;;34.10;;
38940;SDS011;43236;47.208;7.518;2023-03-03T17:18:36;86.43;;;36.50;;
38940;SDS011;43236;47.208;7.518;2023-03-03T17:21:31;78.78;;;34.08;;
38940;SDS011;43236;47.208;7.518;2023-03-03T17:24:25;73.88;;;33.55;;
38940;SDS011;43236;47.208;7.518;2023-03-03T17:27:24;80.72;;;34.85;;
38940;SDS011;43236;47.208;7.518;2023-03-03T17:30:20;80.22;;;34.65;;
38940;SDS011;43236;47.208;7.518;2023-03-03T17:33:17;73.38;;;32.15;;